sensor_id;sensor_type;location;lat;lon;timestamp;temperature;humidity
70557;DHT22;58107;51.034;3.726;2022-09-09T00:00:55;16.70;99.90
70557;DHT22;58107;51.034;3.726;2022-09-09T00:03:27;16.80;99.80
70557;DHT22;58107;51.034;3.726;2022-09-09T00:06:27;16.80;99.70
70557;DHT22;58107;51.034;3.726;2022-09-09T00:09:13;16.90;99.50
70557;DHT22;58107;51.034;3.726;2022-09-09T00:11:43;16.90;99.30
70557;DHT22;58107;51.034;3.726;2022-09-09T00:14:17;16.90;99.20
70557;DHT22;58107;51.034;3.726;2022-09-09T00:16:47;17.00;99.10
70557;DHT22;58107;51.034;3.726;2022-09-09T00:21:56;17.00;99.10
70557;DHT22;58107;51.034;3.726;2022-09-09T00:24:44;17.00;99.10
70557;DHT22;58107;51.034;3.726;2022-09-09T00:27:04;16.90;99.00
70557;DHT22;58107;51.034;3.726;2022-09-09T00:29:45;16.90;98.90
70557;DHT22;58107;51.034;3.726;2022-09-09T00:32:16;17.00;98.80
70557;DHT22;58107;51.034;3.726;2022-09-09T00:34:49;17.10;98.70
70557;DHT22;58107;51.034;3.726;2022-09-09T00:37:21;17.00;98.60
70557;DHT22;58107;51.034;3.726;2022-09-09T00:39:49;17.00;98.70
70557;DHT22;58107;51.034;3.726;2022-09-09T00:42:36;16.90;98.80
70557;DHT22;58107;51.034;3.726;2022-09-09T00:45:24;16.90;99.00
70557;DHT22;58107;51.034;3.726;2022-09-09T00:47:46;16.70;99.30
70557;DHT22;58107;51.034;3.726;2022-09-09T00:53:16;16.70;99.40
70557;DHT22;58107;51.034;3.726;2022-09-09T00:55:48;16.70;99.40
70557;DHT22;58107;51.034;3.726;2022-09-09T00:58:16;16.70;99.50
70557;DHT22;58107;51.034;3.726;2022-09-09T01:17:22;16.80;98.90
70557;DHT22;58107;51.034;3.726;2022-09-09T01:20:12;16.80;99.00
70557;DHT22;58107;51.034;3.726;2022-09-09T01:22:59;16.80;99.10
70557;DHT22;58107;51.034;3.726;2022-09-09T01:28:25;16.70;98.90
70557;DHT22;58107;51.034;3.726;2022-09-09T01:30:53;16.70;99.00
70557;DHT22;58107;51.034;3.726;2022-09-09T01:33:22;16.60;99.20
70557;DHT22;58107;51.034;3.726;2022-09-09T01:36:03;16.60;99.20
70557;DHT22;58107;51.034;3.726;2022-09-09T01:38:30;16.60;99.20
70557;DHT22;58107;51.034;3.726;2022-09-09T01:40:59;16.60;99.20
70557;DHT22;58107;51.034;3.726;2022-09-09T01:43:29;16.60;99.10
70557;DHT22;58107;51.034;3.726;2022-09-09T01:45:59;16.70;99.00
70557;DHT22;58107;51.034;3.726;2022-09-09T01:48:28;16.70;98.90
70557;DHT22;58107;51.034;3.726;2022-09-09T01:50:55;16.70;98.80
70557;DHT22;58107;51.034;3.726;2022-09-09T01:53:23;16.60;98.90
70557;DHT22;58107;51.034;3.726;2022-09-09T01:56:00;16.50;99.20
70557;DHT22;58107;51.034;3.726;2022-09-09T02:04:08;16.50;99.50
70557;DHT22;58107;51.034;3.726;2022-09-09T02:06:41;16.60;99.40
70557;DHT22;58107;51.034;3.726;2022-09-09T02:09:07;16.50;99.40
70557;DHT22;58107;51.034;3.726;2022-09-09T02:11:35;16.40;99.60
70557;DHT22;58107;51.034;3.726;2022-09-09T02:14:06;16.40;99.90
70557;DHT22;58107;51.034;3.726;2022-09-09T02:16:47;16.30;99.90
70557;DHT22;58107;51.034;3.726;2022-09-09T02:19:22;16.30;99.90
70557;DHT22;58107;51.034;3.726;2022-09-09T02:21:53;16.20;99.90
70557;DHT22;58107;51.034;3.726;2022-09-09T02:24:25;16.20;99.90
70557;DHT22;58107;51.034;3.726;2022-09-09T02:26:55;16.20;99.90
70557;DHT22;58107;51.034;3.726;2022-09-09T02:29:38;16.20;99.90
70557;DHT22;58107;51.034;3.726;2022-09-09T02:32:04;16.20;99.90
70557;DHT22;58107;51.034;3.726;2022-09-09T02:34:34;16.20;99.90
70557;DHT22;58107;51.034;3.726;2022-09-09T02:37:04;16.20;99.90
70557;DHT22;58107;51.034;3.726;2022-09-09T02:39:33;16.10;99.90
70557;DHT22;58107;51.034;3.726;2022-09-09T02:42:01;16.10;99.90
70557;DHT22;58107;51.034;3.726;2022-09-09T02:44:30;16.20;99.90
70557;DHT22;58107;51.034;3.726;2022-09-09T02:47:24;16.10;99.90
70557;DHT22;58107;51.034;3.726;2022-09-09T02:52:49;16.10;99.90
70557;DHT22;58107;51.034;3.726;2022-09-09T02:55:24;16.10;99.90
70557;DHT22;58107;51.034;3.726;2022-09-09T02:57:53;16.10;99.90
70557;DHT22;58107;51.034;3.726;2022-09-09T03:00:24;16.10;99.90
70557;DHT22;58107;51.034;3.726;2022-09-09T03:02:52;16.10;99.90
70557;DHT22;58107;51.034;3.726;2022-09-09T03:05:21;16.10;99.90
70557;DHT22;58107;51.034;3.726;2022-09-09T03:07:49;16.10;99.90
70557;DHT22;58107;51.034;3.726;2022-09-09T03:10:17;16.10;99.90
70557;DHT22;58107;51.034;3.726;2022-09-09T03:12:45;16.10;99.90
70557;DHT22;58107;51.034;3.726;2022-09-09T03:15:14;16.10;99.90
70557;DHT22;58107;51.034;3.726;2022-09-09T03:17:41;16.10;99.90
70557;DHT22;58107;51.034;3.726;2022-09-09T03:20:10;16.10;99.90
70557;DHT22;58107;51.034;3.726;2022-09-09T03:22:38;16.10;99.90
70557;DHT22;58107;51.034;3.726;2022-09-09T03:25:07;16.10;99.90
70557;DHT22;58107;51.034;3.726;2022-09-09T03:27:35;16.10;99.90
70557;DHT22;58107;51.034;3.726;2022-09-09T03:30:03;16.10;99.90
70557;DHT22;58107;51.034;3.726;2022-09-09T03:32:31;16.10;99.90
70557;DHT22;58107;51.034;3.726;2022-09-09T03:34:59;16.10;99.90
70557;DHT22;58107;51.034;3.726;2022-09-09T03:37:27;16.10;99.90
70557;DHT22;58107;51.034;3.726;2022-09-09T03:39:54;16.10;99.90
70557;DHT22;58107;51.034;3.726;2022-09-09T03:42:22;16.10;99.90
70557;DHT22;58107;51.034;3.726;2022-09-09T03:44:50;16.10;99.90
70557;DHT22;58107;51.034;3.726;2022-09-09T03:47:19;16.20;99.90
70557;DHT22;58107;51.034;3.726;2022-09-09T03:49:48;16.20;99.90
70557;DHT22;58107;51.034;3.726;2022-09-09T03:52:16;16.20;99.90
70557;DHT22;58107;51.034;3.726;2022-09-09T03:54:44;16.10;99.90
70557;DHT22;58107;51.034;3.726;2022-09-09T03:57:12;16.10;99.90
70557;DHT22;58107;51.034;3.726;2022-09-09T03:59:42;16.10;99.90
70557;DHT22;58107;51.034;3.726;2022-09-09T04:02:10;16.20;99.90
70557;DHT22;58107;51.034;3.726;2022-09-09T04:04:38;16.10;99.90
70557;DHT22;58107;51.034;3.726;2022-09-09T04:07:06;16.10;99.90
70557;DHT22;58107;51.034;3.726;2022-09-09T04:09:34;16.10;99.90
70557;DHT22;58107;51.034;3.726;2022-09-09T04:12:02;16.20;99.90
70557;DHT22;58107;51.034;3.726;2022-09-09T04:14:30;16.20;99.90
70557;DHT22;58107;51.034;3.726;2022-09-09T04:16:58;16.10;99.90
70557;DHT22;58107;51.034;3.726;2022-09-09T04:19:26;16.20;99.90
70557;DHT22;58107;51.034;3.726;2022-09-09T04:21:54;16.20;99.90
70557;DHT22;58107;51.034;3.726;2022-09-09T04:24:22;16.10;99.90
70557;DHT22;58107;51.034;3.726;2022-09-09T04:26:50;16.10;99.90
70557;DHT22;58107;51.034;3.726;2022-09-09T04:29:19;16.20;99.90
70557;DHT22;58107;51.034;3.726;2022-09-09T04:31:49;16.20;99.90
70557;DHT22;58107;51.034;3.726;2022-09-09T04:34:18;16.20;99.90
70557;DHT22;58107;51.034;3.726;2022-09-09T04:36:46;16.20;99.90
70557;DHT22;58107;51.034;3.726;2022-09-09T04:39:14;16.20;99.90
70557;DHT22;58107;51.034;3.726;2022-09-09T04:41:41;16.10;99.90
70557;DHT22;58107;51.034;3.726;2022-09-09T04:44:09;16.20;99.90
70557;DHT22;58107;51.034;3.726;2022-09-09T04:46:37;16.20;99.90
70557;DHT22;58107;51.034;3.726;2022-09-09T04:49:05;16.20;99.90
70557;DHT22;58107;51.034;3.726;2022-09-09T04:51:33;16.10;99.90
70557;DHT22;58107;51.034;3.726;2022-09-09T04:54:00;16.20;99.90
70557;DHT22;58107;51.034;3.726;2022-09-09T04:56:28;16.10;99.90
70557;DHT22;58107;51.034;3.726;2022-09-09T04:58:57;16.10;99.90
70557;DHT22;58107;51.034;3.726;2022-09-09T05:01:26;16.10;99.90
70557;DHT22;58107;51.034;3.726;2022-09-09T05:03:53;16.10;99.90
70557;DHT22;58107;51.034;3.726;2022-09-09T05:06:22;16.10;99.90
70557;DHT22;58107;51.034;3.726;2022-09-09T05:08:50;16.00;99.90
70557;DHT22;58107;51.034;3.726;2022-09-09T05:11:24;16.10;99.90
70557;DHT22;58107;51.034;3.726;2022-09-09T05:13:54;16.10;99.90
70557;DHT22;58107;51.034;3.726;2022-09-09T05:16:23;16.10;99.90
70557;DHT22;58107;51.034;3.726;2022-09-09T05:18:51;16.10;99.90
70557;DHT22;58107;51.034;3.726;2022-09-09T05:21:20;16.10;99.90
70557;DHT22;58107;51.034;3.726;2022-09-09T05:23:48;16.00;99.90
70557;DHT22;58107;51.034;3.726;2022-09-09T05:26:20;16.10;99.90
70557;DHT22;58107;51.034;3.726;2022-09-09T05:28:48;16.10;99.90
70557;DHT22;58107;51.034;3.726;2022-09-09T05:31:17;16.10;99.90
70557;DHT22;58107;51.034;3.726;2022-09-09T05:33:46;16.10;99.90
70557;DHT22;58107;51.034;3.726;2022-09-09T05:36:22;16.10;99.90
70557;DHT22;58107;51.034;3.726;2022-09-09T05:38:47;16.10;99.90
70557;DHT22;58107;51.034;3.726;2022-09-09T05:41:16;16.10;99.90
70557;DHT22;58107;51.034;3.726;2022-09-09T05:43:45;16.10;99.90
70557;DHT22;58107;51.034;3.726;2022-09-09T05:46:24;16.20;99.90
70557;DHT22;58107;51.034;3.726;2022-09-09T05:48:48;16.20;99.90
70557;DHT22;58107;51.034;3.726;2022-09-09T05:51:22;16.20;99.90
70557;DHT22;58107;51.034;3.726;2022-09-09T05:53:51;16.20;99.90
70557;DHT22;58107;51.034;3.726;2022-09-09T05:56:20;16.30;99.90
70557;DHT22;58107;51.034;3.726;2022-09-09T05:58:53;16.30;99.90
70557;DHT22;58107;51.034;3.726;2022-09-09T06:01:24;16.30;99.90
70557;DHT22;58107;51.034;3.726;2022-09-09T06:03:53;16.20;99.90
70557;DHT22;58107;51.034;3.726;2022-09-09T06:06:23;16.20;99.90
70557;DHT22;58107;51.034;3.726;2022-09-09T06:08:54;16.20;99.90
70557;DHT22;58107;51.034;3.726;2022-09-09T06:11:28;16.10;99.90
70557;DHT22;58107;51.034;3.726;2022-09-09T06:13:57;16.10;99.90
70557;DHT22;58107;51.034;3.726;2022-09-09T06:16:27;15.90;99.90
70557;DHT22;58107;51.034;3.726;2022-09-09T06:18:55;15.70;99.90
70557;DHT22;58107;51.034;3.726;2022-09-09T06:21:30;15.60;99.90
70557;DHT22;58107;51.034;3.726;2022-09-09T06:23:59;15.50;99.90
70557;DHT22;58107;51.034;3.726;2022-09-09T06:26:30;15.50;99.90
70557;DHT22;58107;51.034;3.726;2022-09-09T06:28:58;15.50;99.90
70557;DHT22;58107;51.034;3.726;2022-09-09T06:31:28;15.40;99.90
70557;DHT22;58107;51.034;3.726;2022-09-09T06:34:01;15.40;99.90
70557;DHT22;58107;51.034;3.726;2022-09-09T06:36:33;15.40;99.90
70557;DHT22;58107;51.034;3.726;2022-09-09T06:39:04;15.50;99.90
70557;DHT22;58107;51.034;3.726;2022-09-09T06:41:32;15.50;99.90
70557;DHT22;58107;51.034;3.726;2022-09-09T06:44:01;15.40;99.90
70557;DHT22;58107;51.034;3.726;2022-09-09T06:46:30;15.50;99.90
70557;DHT22;58107;51.034;3.726;2022-09-09T06:49:00;15.50;99.90
70557;DHT22;58107;51.034;3.726;2022-09-09T06:51:30;15.50;99.90
70557;DHT22;58107;51.034;3.726;2022-09-09T06:54:00;15.50;99.90
70557;DHT22;58107;51.034;3.726;2022-09-09T06:56:31;15.60;99.90
70557;DHT22;58107;51.034;3.726;2022-09-09T06:59:03;15.70;99.90
70557;DHT22;58107;51.034;3.726;2022-09-09T07:01:33;15.70;99.90
70557;DHT22;58107;51.034;3.726;2022-09-09T07:04:00;15.70;99.90
70557;DHT22;58107;51.034;3.726;2022-09-09T07:06:32;15.80;99.90
70557;DHT22;58107;51.034;3.726;2022-09-09T07:09:03;15.80;99.90
70557;DHT22;58107;51.034;3.726;2022-09-09T07:11:33;15.90;99.90
70557;DHT22;58107;51.034;3.726;2022-09-09T07:14:01;16.00;99.90
70557;DHT22;58107;51.034;3.726;2022-09-09T07:16:29;16.00;99.90
70557;DHT22;58107;51.034;3.726;2022-09-09T07:18:59;16.00;99.90
70557;DHT22;58107;51.034;3.726;2022-09-09T07:21:28;16.00;99.90
70557;DHT22;58107;51.034;3.726;2022-09-09T07:23:56;15.90;99.90
70557;DHT22;58107;51.034;3.726;2022-09-09T07:26:26;16.00;99.90
70557;DHT22;58107;51.034;3.726;2022-09-09T07:28:55;15.90;99.90
70557;DHT22;58107;51.034;3.726;2022-09-09T07:31:28;16.00;99.90
70557;DHT22;58107;51.034;3.726;2022-09-09T07:34:00;16.10;99.90
70557;DHT22;58107;51.034;3.726;2022-09-09T07:36:30;16.20;99.90
70557;DHT22;58107;51.034;3.726;2022-09-09T07:39:02;16.20;99.90
70557;DHT22;58107;51.034;3.726;2022-09-09T07:44:13;16.20;99.90
70557;DHT22;58107;51.034;3.726;2022-09-09T07:46:37;16.30;99.90
70557;DHT22;58107;51.034;3.726;2022-09-09T07:49:06;16.30;99.90
70557;DHT22;58107;51.034;3.726;2022-09-09T07:51:40;16.30;99.90
70557;DHT22;58107;51.034;3.726;2022-09-09T07:54:10;16.30;99.90
70557;DHT22;58107;51.034;3.726;2022-09-09T07:56:39;16.30;99.90
70557;DHT22;58107;51.034;3.726;2022-09-09T07:59:07;16.20;99.90
70557;DHT22;58107;51.034;3.726;2022-09-09T08:01:48;16.10;99.90
70557;DHT22;58107;51.034;3.726;2022-09-09T08:04:19;16.00;99.90
70557;DHT22;58107;51.034;3.726;2022-09-09T08:09:21;15.90;99.90
70557;DHT22;58107;51.034;3.726;2022-09-09T08:11:50;15.80;99.90
70557;DHT22;58107;51.034;3.726;2022-09-09T08:14:18;15.80;99.90
70557;DHT22;58107;51.034;3.726;2022-09-09T08:16:47;15.80;99.90
70557;DHT22;58107;51.034;3.726;2022-09-09T08:19:16;15.80;99.90
70557;DHT22;58107;51.034;3.726;2022-09-09T08:21:44;15.80;99.90
70557;DHT22;58107;51.034;3.726;2022-09-09T08:24:13;15.80;99.90
70557;DHT22;58107;51.034;3.726;2022-09-09T08:26:44;15.70;99.90
70557;DHT22;58107;51.034;3.726;2022-09-09T08:29:13;15.80;99.90
70557;DHT22;58107;51.034;3.726;2022-09-09T08:31:52;15.80;99.90
70557;DHT22;58107;51.034;3.726;2022-09-09T08:34:21;15.80;99.90
70557;DHT22;58107;51.034;3.726;2022-09-09T08:36:50;15.80;99.90
70557;DHT22;58107;51.034;3.726;2022-09-09T08:39:19;15.80;99.90
70557;DHT22;58107;51.034;3.726;2022-09-09T08:52:21;16.00;99.90
70557;DHT22;58107;51.034;3.726;2022-09-09T08:54:48;16.00;99.90
70557;DHT22;58107;51.034;3.726;2022-09-09T08:57:23;16.00;99.90
70557;DHT22;58107;51.034;3.726;2022-09-09T08:59:53;16.00;99.90
70557;DHT22;58107;51.034;3.726;2022-09-09T09:02:44;16.10;99.90
70557;DHT22;58107;51.034;3.726;2022-09-09T09:05:18;16.10;99.90
70557;DHT22;58107;51.034;3.726;2022-09-09T09:08:03;16.10;99.90
70557;DHT22;58107;51.034;3.726;2022-09-09T09:10:47;16.10;99.90
70557;DHT22;58107;51.034;3.726;2022-09-09T09:13:18;16.10;99.90
70557;DHT22;58107;51.034;3.726;2022-09-09T09:15:51;16.10;99.90
70557;DHT22;58107;51.034;3.726;2022-09-09T09:18:18;16.20;99.90
70557;DHT22;58107;51.034;3.726;2022-09-09T09:20:56;16.20;99.90
70557;DHT22;58107;51.034;3.726;2022-09-09T09:23:24;16.30;99.90
70557;DHT22;58107;51.034;3.726;2022-09-09T09:25:58;16.40;99.90
70557;DHT22;58107;51.034;3.726;2022-09-09T09:28:33;16.50;99.90
70557;DHT22;58107;51.034;3.726;2022-09-09T09:31:12;16.60;99.90
70557;DHT22;58107;51.034;3.726;2022-09-09T09:33:50;16.80;99.90
70557;DHT22;58107;51.034;3.726;2022-09-09T09:36:21;16.80;99.90
70557;DHT22;58107;51.034;3.726;2022-09-09T09:38:55;17.00;99.90
70557;DHT22;58107;51.034;3.726;2022-09-09T09:41:42;17.10;99.90
70557;DHT22;58107;51.034;3.726;2022-09-09T09:44:24;17.10;99.90
70557;DHT22;58107;51.034;3.726;2022-09-09T09:46:52;17.00;99.90
70557;DHT22;58107;51.034;3.726;2022-09-09T09:49:21;17.00;99.90
70557;DHT22;58107;51.034;3.726;2022-09-09T09:51:48;17.00;99.90
70557;DHT22;58107;51.034;3.726;2022-09-09T09:54:27;17.00;99.90
70557;DHT22;58107;51.034;3.726;2022-09-09T09:56:51;17.00;99.90
70557;DHT22;58107;51.034;3.726;2022-09-09T09:59:21;17.00;99.90
70557;DHT22;58107;51.034;3.726;2022-09-09T10:01:50;17.00;99.90
70557;DHT22;58107;51.034;3.726;2022-09-09T10:04:21;17.00;99.90
70557;DHT22;58107;51.034;3.726;2022-09-09T10:06:50;17.00;99.90
70557;DHT22;58107;51.034;3.726;2022-09-09T10:12:02;17.10;99.90
70557;DHT22;58107;51.034;3.726;2022-09-09T10:17:18;17.20;99.90
70557;DHT22;58107;51.034;3.726;2022-09-09T10:20:32;17.20;99.90
70557;DHT22;58107;51.034;3.726;2022-09-09T10:22:26;17.20;99.90
70557;DHT22;58107;51.034;3.726;2022-09-09T10:25:16;17.30;99.90
70557;DHT22;58107;51.034;3.726;2022-09-09T10:36:04;17.30;99.90
70557;DHT22;58107;51.034;3.726;2022-09-09T10:53:14;17.60;99.90
70557;DHT22;58107;51.034;3.726;2022-09-09T10:55:42;17.70;99.90
70557;DHT22;58107;51.034;3.726;2022-09-09T10:58:14;17.70;99.90
70557;DHT22;58107;51.034;3.726;2022-09-09T11:00:47;17.70;99.90
70557;DHT22;58107;51.034;3.726;2022-09-09T11:03:24;17.70;99.90
70557;DHT22;58107;51.034;3.726;2022-09-09T11:06:00;17.70;99.90
70557;DHT22;58107;51.034;3.726;2022-09-09T11:08:30;17.70;99.90
70557;DHT22;58107;51.034;3.726;2022-09-09T11:16:41;18.10;99.90
70557;DHT22;58107;51.034;3.726;2022-09-09T11:19:22;18.20;99.90
70557;DHT22;58107;51.034;3.726;2022-09-09T11:21:49;18.30;99.90
70557;DHT22;58107;51.034;3.726;2022-09-09T11:27:04;18.60;99.90
70557;DHT22;58107;51.034;3.726;2022-09-09T11:35:18;18.90;99.30
70557;DHT22;58107;51.034;3.726;2022-09-09T11:38:12;19.60;97.50
70557;DHT22;58107;51.034;3.726;2022-09-09T11:40:28;19.30;97.30
70557;DHT22;58107;51.034;3.726;2022-09-09T11:43:15;19.40;96.70
70557;DHT22;58107;51.034;3.726;2022-09-09T11:45:50;19.30;96.90
70557;DHT22;58107;51.034;3.726;2022-09-09T11:51:08;18.90;98.10
70557;DHT22;58107;51.034;3.726;2022-09-09T11:53:58;18.90;98.50
70557;DHT22;58107;51.034;3.726;2022-09-09T11:56:32;18.80;98.70
70557;DHT22;58107;51.034;3.726;2022-09-09T11:59:04;18.70;99.10
70557;DHT22;58107;51.034;3.726;2022-09-09T12:01:37;18.80;98.70
70557;DHT22;58107;51.034;3.726;2022-09-09T12:04:17;18.90;98.40
70557;DHT22;58107;51.034;3.726;2022-09-09T12:06:48;19.00;98.50
70557;DHT22;58107;51.034;3.726;2022-09-09T12:11:50;19.40;97.50
70557;DHT22;58107;51.034;3.726;2022-09-09T12:14:23;19.60;96.90
70557;DHT22;58107;51.034;3.726;2022-09-09T12:16:51;19.60;96.90
70557;DHT22;58107;51.034;3.726;2022-09-09T12:19:21;19.90;96.30
70557;DHT22;58107;51.034;3.726;2022-09-09T12:21:57;19.60;96.80
70557;DHT22;58107;51.034;3.726;2022-09-09T12:24:27;19.40;97.70
70557;DHT22;58107;51.034;3.726;2022-09-09T12:29:44;19.70;97.50
70557;DHT22;58107;51.034;3.726;2022-09-09T12:32:16;20.20;96.20
70557;DHT22;58107;51.034;3.726;2022-09-09T12:34:47;20.20;95.80
70557;DHT22;58107;51.034;3.726;2022-09-09T12:37:37;19.90;95.90
70557;DHT22;58107;51.034;3.726;2022-09-09T12:40:18;19.80;96.00
70557;DHT22;58107;51.034;3.726;2022-09-09T12:42:39;19.70;96.20
70557;DHT22;58107;51.034;3.726;2022-09-09T12:45:21;19.70;96.30
70557;DHT22;58107;51.034;3.726;2022-09-09T12:48:10;19.80;96.10
70557;DHT22;58107;51.034;3.726;2022-09-09T12:50:48;19.90;96.20
70557;DHT22;58107;51.034;3.726;2022-09-09T12:53:22;19.70;96.00
70557;DHT22;58107;51.034;3.726;2022-09-09T12:55:52;19.70;96.60
70557;DHT22;58107;51.034;3.726;2022-09-09T12:58:21;19.50;97.20
70557;DHT22;58107;51.034;3.726;2022-09-09T13:00:53;19.40;97.60
70557;DHT22;58107;51.034;3.726;2022-09-09T13:03:23;19.30;98.10
70557;DHT22;58107;51.034;3.726;2022-09-09T13:05:52;19.20;98.70
70557;DHT22;58107;51.034;3.726;2022-09-09T13:08:20;19.20;99.60
70557;DHT22;58107;51.034;3.726;2022-09-09T13:13:28;19.00;99.90
70557;DHT22;58107;51.034;3.726;2022-09-09T13:15:59;19.00;99.90
70557;DHT22;58107;51.034;3.726;2022-09-09T13:18:29;19.20;99.90
70557;DHT22;58107;51.034;3.726;2022-09-09T13:20:58;19.30;99.90
70557;DHT22;58107;51.034;3.726;2022-09-09T13:23:33;19.40;99.90
70557;DHT22;58107;51.034;3.726;2022-09-09T13:25:59;19.60;97.60
70557;DHT22;58107;51.034;3.726;2022-09-09T13:28:30;20.50;96.20
70557;DHT22;58107;51.034;3.726;2022-09-09T13:33:35;21.40;93.40
70557;DHT22;58107;51.034;3.726;2022-09-09T13:36:06;21.20;92.30
70557;DHT22;58107;51.034;3.726;2022-09-09T13:41:23;21.20;92.10
70557;DHT22;58107;51.034;3.726;2022-09-09T13:43:52;21.40;91.80
70557;DHT22;58107;51.034;3.726;2022-09-09T13:46:41;21.30;91.70
70557;DHT22;58107;51.034;3.726;2022-09-09T13:51:48;20.60;93.10
70557;DHT22;58107;51.034;3.726;2022-09-09T13:54:18;20.40;93.40
70557;DHT22;58107;51.034;3.726;2022-09-09T13:56:46;20.10;93.60
70557;DHT22;58107;51.034;3.726;2022-09-09T13:59:18;19.90;93.50
70557;DHT22;58107;51.034;3.726;2022-09-09T14:01:48;19.90;94.10
70557;DHT22;58107;51.034;3.726;2022-09-09T14:04:19;19.90;94.40
70557;DHT22;58107;51.034;3.726;2022-09-09T14:06:50;19.90;94.10
70557;DHT22;58107;51.034;3.726;2022-09-09T14:09:18;19.90;94.30
70557;DHT22;58107;51.034;3.726;2022-09-09T14:11:46;19.90;94.70
70557;DHT22;58107;51.034;3.726;2022-09-09T14:14:14;19.90;95.00
70557;DHT22;58107;51.034;3.726;2022-09-09T14:16:42;19.70;95.50
70557;DHT22;58107;51.034;3.726;2022-09-09T14:19:09;19.70;96.20
70557;DHT22;58107;51.034;3.726;2022-09-09T14:21:37;19.70;96.50
70557;DHT22;58107;51.034;3.726;2022-09-09T14:24:05;19.80;96.20
70557;DHT22;58107;51.034;3.726;2022-09-09T14:26:33;19.80;96.10
70557;DHT22;58107;51.034;3.726;2022-09-09T14:29:01;19.90;96.10
70557;DHT22;58107;51.034;3.726;2022-09-09T14:31:30;20.00;95.90
70557;DHT22;58107;51.034;3.726;2022-09-09T14:33:58;20.20;95.10
70557;DHT22;58107;51.034;3.726;2022-09-09T14:36:25;20.60;94.30
70557;DHT22;58107;51.034;3.726;2022-09-09T14:38:53;20.90;93.10
70557;DHT22;58107;51.034;3.726;2022-09-09T14:41:25;21.00;92.30
70557;DHT22;58107;51.034;3.726;2022-09-09T14:43:53;21.20;91.60
70557;DHT22;58107;51.034;3.726;2022-09-09T14:46:22;21.40;90.30
70557;DHT22;58107;51.034;3.726;2022-09-09T14:48:50;21.50;90.10
70557;DHT22;58107;51.034;3.726;2022-09-09T14:51:20;21.40;89.60
70557;DHT22;58107;51.034;3.726;2022-09-09T14:53:53;21.40;90.00
70557;DHT22;58107;51.034;3.726;2022-09-09T14:56:23;21.40;90.10
70557;DHT22;58107;51.034;3.726;2022-09-09T14:58:54;21.40;89.80
70557;DHT22;58107;51.034;3.726;2022-09-09T15:01:26;21.40;89.20
70557;DHT22;58107;51.034;3.726;2022-09-09T15:04:04;21.20;89.10
70557;DHT22;58107;51.034;3.726;2022-09-09T15:06:29;21.10;89.60
70557;DHT22;58107;51.034;3.726;2022-09-09T15:08:58;21.00;90.20
70557;DHT22;58107;51.034;3.726;2022-09-09T15:11:28;21.00;89.60
70557;DHT22;58107;51.034;3.726;2022-09-09T15:13:58;20.90;88.70
70557;DHT22;58107;51.034;3.726;2022-09-09T15:16:27;20.80;88.90
70557;DHT22;58107;51.034;3.726;2022-09-09T15:18:57;20.80;89.50
70557;DHT22;58107;51.034;3.726;2022-09-09T15:21:25;21.00;89.30
70557;DHT22;58107;51.034;3.726;2022-09-09T15:23:54;21.10;88.10
70557;DHT22;58107;51.034;3.726;2022-09-09T15:26:22;20.90;87.30
70557;DHT22;58107;51.034;3.726;2022-09-09T15:28:50;21.00;88.00
70557;DHT22;58107;51.034;3.726;2022-09-09T15:31:23;20.90;87.20
70557;DHT22;58107;51.034;3.726;2022-09-09T15:33:56;20.70;87.10
70557;DHT22;58107;51.034;3.726;2022-09-09T15:39:06;20.40;88.50
70557;DHT22;58107;51.034;3.726;2022-09-09T15:41:34;20.40;89.30
70557;DHT22;58107;51.034;3.726;2022-09-09T15:44:04;20.40;90.00
70557;DHT22;58107;51.034;3.726;2022-09-09T15:46:34;20.30;90.30
70557;DHT22;58107;51.034;3.726;2022-09-09T15:49:16;20.30;90.50
70557;DHT22;58107;51.034;3.726;2022-09-09T15:51:56;20.40;90.60
70557;DHT22;58107;51.034;3.726;2022-09-09T15:54:25;20.30;90.80
70557;DHT22;58107;51.034;3.726;2022-09-09T15:56:58;20.30;90.70
70557;DHT22;58107;51.034;3.726;2022-09-09T15:59:28;20.20;90.80
70557;DHT22;58107;51.034;3.726;2022-09-09T16:01:56;20.20;91.10
70557;DHT22;58107;51.034;3.726;2022-09-09T16:04:27;20.20;91.40
70557;DHT22;58107;51.034;3.726;2022-09-09T16:07:00;20.20;91.60
70557;DHT22;58107;51.034;3.726;2022-09-09T16:09:29;20.10;92.00
70557;DHT22;58107;51.034;3.726;2022-09-09T16:11:58;20.10;92.70
70557;DHT22;58107;51.034;3.726;2022-09-09T16:14:28;20.20;92.20
70557;DHT22;58107;51.034;3.726;2022-09-09T16:16:57;20.30;91.80
70557;DHT22;58107;51.034;3.726;2022-09-09T16:19:25;20.40;90.60
70557;DHT22;58107;51.034;3.726;2022-09-09T16:21:52;20.40;90.00
70557;DHT22;58107;51.034;3.726;2022-09-09T16:24:20;20.40;88.60
70557;DHT22;58107;51.034;3.726;2022-09-09T16:26:51;20.30;89.40
70557;DHT22;58107;51.034;3.726;2022-09-09T16:29:20;20.30;90.30
70557;DHT22;58107;51.034;3.726;2022-09-09T16:31:50;20.20;90.60
70557;DHT22;58107;51.034;3.726;2022-09-09T16:34:18;20.20;90.90
70557;DHT22;58107;51.034;3.726;2022-09-09T16:36:47;20.20;91.30
70557;DHT22;58107;51.034;3.726;2022-09-09T16:39:17;20.20;91.30
70557;DHT22;58107;51.034;3.726;2022-09-09T16:41:47;20.20;91.50
70557;DHT22;58107;51.034;3.726;2022-09-09T16:44:16;20.20;91.30
70557;DHT22;58107;51.034;3.726;2022-09-09T16:46:46;20.20;91.40
70557;DHT22;58107;51.034;3.726;2022-09-09T16:49:15;20.10;91.80
70557;DHT22;58107;51.034;3.726;2022-09-09T16:51:48;20.10;92.10
70557;DHT22;58107;51.034;3.726;2022-09-09T16:54:18;20.00;92.60
70557;DHT22;58107;51.034;3.726;2022-09-09T16:56:47;20.00;92.60
70557;DHT22;58107;51.034;3.726;2022-09-09T16:59:19;19.90;93.00
70557;DHT22;58107;51.034;3.726;2022-09-09T17:02:07;19.90;93.70
70557;DHT22;58107;51.034;3.726;2022-09-09T17:04:35;19.80;94.30
70557;DHT22;58107;51.034;3.726;2022-09-09T17:07:03;19.80;94.60
70557;DHT22;58107;51.034;3.726;2022-09-09T17:09:31;19.10;99.90
70557;DHT22;58107;51.034;3.726;2022-09-09T17:11:59;18.50;99.90
70557;DHT22;58107;51.034;3.726;2022-09-09T17:14:27;18.20;99.90
70557;DHT22;58107;51.034;3.726;2022-09-09T17:16:57;18.10;99.90
70557;DHT22;58107;51.034;3.726;2022-09-09T17:19:24;18.00;99.90
70557;DHT22;58107;51.034;3.726;2022-09-09T17:21:52;18.00;99.90
70557;DHT22;58107;51.034;3.726;2022-09-09T17:24:22;18.00;99.90
70557;DHT22;58107;51.034;3.726;2022-09-09T17:26:50;18.00;99.90
70557;DHT22;58107;51.034;3.726;2022-09-09T17:29:18;18.00;99.90
70557;DHT22;58107;51.034;3.726;2022-09-09T17:31:46;18.00;99.90
70557;DHT22;58107;51.034;3.726;2022-09-09T17:34:13;18.00;99.90
70557;DHT22;58107;51.034;3.726;2022-09-09T17:36:41;18.00;99.90
70557;DHT22;58107;51.034;3.726;2022-09-09T17:39:09;18.00;99.90
70557;DHT22;58107;51.034;3.726;2022-09-09T17:41:42;18.00;99.90
70557;DHT22;58107;51.034;3.726;2022-09-09T17:44:09;17.90;99.90
70557;DHT22;58107;51.034;3.726;2022-09-09T17:46:39;17.90;99.90